Terminal Aerodrome Forecast
Issued by NWS Portland, ME

Home | Current Version | Previous Version | Text Only | Print | Product List | Glossary On
Versions: 1 2 3 4 5 6 7 8 9 10 11 12 13 14 15 16 17 18 19 20 21 22
162
FTUS41 KGYX 271724
TAFPWM
TAF
KPWM 271724Z 2718/2818 09011KT 2SM -RA BR OVC006
     FM272200 05005KT 4SM -SHRA BR OVC010
     FM280600 VRB03KT 3SM BR OVC004=

USA.gov is the U.S. government's official web portal to all federal, state and local government web resources and services.